Time;durP1;ratioP1;P1;durP2;ratioP2;P2;SDS_P1;SDS_P2;PMS_P1;PMS_P2;Temp;Humidity;BMP_temperature;BMP_pressure;BME280_temperature;BME280_humidity;BME280_pressure;Samples;Min_cycle;Max_cycle;Signal;HPM_P1;HPM_P2
2021/08/13 00:00:27;;;;;;;4.53;3.70;;;;;;;30.01;43.87;101434.55;128506;1084;64215;-86
2021/08/13 00:02:54;;;;;;;5.93;4.30;;;;;;;30.02;43.66;101429.94;128517;1084;64107;-86
2021/08/13 00:05:20;;;;;;;4.87;3.97;;;;;;;30.02;44.11;101425.38;128492;1084;64270;-85
2021/08/13 00:07:46;;;;;;;4.60;3.73;;;;;;;30.02;44.04;101435.39;128491;1082;64706;-85
2021/08/13 00:10:14;;;;;;;4.60;3.77;;;;;;;30.02;44.07;101432.66;128473;1084;64117;-86
2021/08/13 00:12:45;;;;;;;4.87;3.73;;;;;;;30.02;43.86;101424.50;128539;1084;64133;-86
2021/08/13 00:15:11;;;;;;;5.47;3.83;;;;;;;30.02;44.16;101436.27;128461;1084;64655;-87
2021/08/13 00:17:38;;;;;;;5.40;4.00;;;;;;;30.01;43.88;101428.25;128491;1084;64144;-85
2021/08/13 00:20:05;;;;;;;5.40;3.80;;;;;;;30.01;43.69;101414.64;128499;1084;64127;-85
2021/08/13 00:22:31;;;;;;;5.90;3.70;;;;;;;30.01;43.64;101418.21;128501;1083;64377;-87
2021/08/13 00:24:58;;;;;;;4.37;3.70;;;;;;;30.01;43.87;101412.77;128497;1084;64134;-86
2021/08/13 00:27:24;;;;;;;5.03;3.93;;;;;;;30.01;43.67;101415.48;128511;1084;64111;-86
2021/08/13 00:29:52;;;;;;;5.93;4.17;;;;;;;30.01;44.05;101418.21;128939;1084;64612;-85
2021/08/13 00:32:18;;;;;;;5.40;3.75;;;;;;;30.01;43.60;101418.21;128519;1084;64179;-86
2021/08/13 00:34:45;;;;;;;5.23;4.20;;;;;;;30.01;44.12;101420.09;128507;1084;64185;-86
2021/08/13 00:37:11;;;;;;;4.90;3.90;;;;;;;30.01;44.09;101420.09;128504;1084;64147;-87
2021/08/13 00:39:37;;;;;;;5.67;3.80;;;;;;;30.01;43.68;101417.36;128557;1083;64326;-85
2021/08/13 00:42:03;;;;;;;5.00;3.95;;;;;;;30.00;44.18;101419.21;128540;1084;64112;-84
2021/08/13 00:44:30;;;;;;;5.20;3.70;;;;;;;30.01;44.25;101422.81;128602;1084;64173;-83
2021/08/13 00:46:57;;;;;;;4.93;3.90;;;;;;;30.01;44.16;101422.81;128977;1084;64135;-84
2021/08/13 00:49:23;;;;;;;4.87;3.70;;;;;;;30.01;44.13;101431.82;128653;1083;62820;-83
2021/08/13 00:51:49;;;;;;;4.93;3.95;;;;;;;30.02;43.62;101421.77;128536;1084;64076;-85
2021/08/13 00:54:16;;;;;;;4.50;3.67;;;;;;;30.02;43.86;101419.93;128509;1084;64208;-84
2021/08/13 00:56:42;;;;;;;5.77;4.30;;;;;;;30.02;44.14;101416.33;128471;1082;64145;-86
2021/08/13 00:59:10;;;;;;;5.80;4.20;;;;;;;30.02;43.96;101422.65;128499;1084;64265;-86
2021/08/13 01:01:40;;;;;;;4.80;3.80;;;;;;;30.02;44.14;101421.77;128917;1084;64130;-85
2021/08/13 01:04:07;;;;;;;4.73;3.87;;;;;;;30.02;44.09;101425.38;128510;1084;64128;-85
2021/08/13 01:06:35;;;;;;;4.73;3.65;;;;;;;30.01;43.78;101423.66;128508;1084;64205;-85
2021/08/13 01:09:04;;;;;;;5.27;4.00;;;;;;;30.02;43.99;101432.66;128480;1084;64235;-85
2021/08/13 01:11:49;;;;;;;4.30;3.60;;;;;;;30.01;44.08;101422.81;128517;1083;64128;-86
2021/08/13 01:14:27;;;;;;;5.53;3.83;;;;;;;30.00;43.65;101427.38;128909;1084;64200;-85
2021/08/13 01:16:54;;;;;;;;;;;;;;;29.99;43.97;101439.27;128971;1084;64131;-85
2021/08/13 01:19:52;;;;;;;5.00;3.90;;;;;;;29.99;44.03;101435.70;128896;1082;64208;-86
2021/08/13 01:22:24;;;;;;;5.43;4.10;;;;;;;29.98;43.86;101436.70;128915;1084;64266;-86
2021/08/13 01:24:50;;;;;;;5.20;3.90;;;;;;;29.98;44.10;101436.70;128504;1084;64134;-86
2021/08/13 01:27:24;;;;;;;4.73;3.83;;;;;;;29.97;43.95;101433.14;128502;1084;64202;-86
2021/08/13 01:30:12;;;;;;;5.60;4.20;;;;;;;29.98;43.70;101437.58;128477;1084;64206;-86
2021/08/13 01:32:43;;;;;;;5.80;4.30;;;;;;;29.98;44.13;101439.43;128503;1084;64134;-85
2021/08/13 01:35:12;;;;;;;4.93;3.77;;;;;;;29.98;43.93;101443.02;128956;1084;64158;-87
2021/08/13 01:37:47;;;;;;;;;;;;;;;29.97;44.16;101446.75;128508;1084;64131;-85
2021/08/13 01:40:17;;;;;;;5.50;3.57;;;;;;;29.96;44.19;101449.63;128474;1084;64144;-86
2021/08/13 01:42:44;;;;;;;5.27;4.20;;;;;;;29.96;43.64;101447.75;128918;1084;64154;-85
2021/08/13 01:45:44;;;;;;;5.00;3.97;;;;;;;29.95;44.12;101451.48;128496;1084;64112;-85
2021/08/13 01:48:11;;;;;;;4.60;3.63;;;;;;;29.96;44.10;101455.08;128377;1086;64265;-85
2021/08/13 01:50:37;;;;;;;5.57;4.13;;;;;;;29.96;43.91;101460.52;128015;1087;64310;-86
2021/08/13 01:53:03;;;;;;;4.67;3.90;;;;;;;29.96;43.75;101461.36;128389;1085;64252;-85
2021/08/13 01:55:31;;;;;;;5.50;4.00;;;;;;;29.96;44.26;101457.80;128273;1087;64155;-85
2021/08/13 01:57:57;;;;;;;5.20;4.17;;;;;;;29.96;43.85;101458.64;128002;1087;64085;-85
2021/08/13 02:00:24;;;;;;;5.10;4.07;;;;;;;29.96;43.97;101457.80;128262;1087;64230;-85
2021/08/13 02:02:52;;;;;;;5.38;3.93;;;;;;;29.96;44.13;101460.52;128367;1087;64165;-86
2021/08/13 02:05:26;;;;;;;4.83;4.20;;;;;;;29.96;44.31;101458.64;128389;1087;64265;-86
2021/08/13 02:07:52;;;;;;;5.27;4.00;;;;;;;29.96;44.01;101463.23;128339;1085;64144;-86
2021/08/13 02:10:18;;;;;;;7.10;4.27;;;;;;;29.95;43.85;101461.52;127999;1085;64234;-86
2021/08/13 02:12:51;;;;;;;5.50;4.07;;;;;;;29.95;43.85;101472.41;128246;1087;64211;-87
2021/08/13 02:15:17;;;;;;;5.73;3.97;;;;;;;29.95;44.20;101470.53;127997;1087;64258;-86
2021/08/13 02:18:12;;;;;;;5.37;3.73;;;;;;;29.96;43.85;101482.30;128033;1087;64128;-85
2021/08/13 02:20:40;;;;;;;4.53;3.90;;;;;;;29.95;44.20;101484.14;128358;1085;64393;-86
2021/08/13 02:23:06;;;;;;;4.75;3.80;;;;;;;29.96;43.83;101488.58;128066;1087;64148;-86
2021/08/13 02:25:34;;;;;;;4.77;3.73;;;;;;;29.95;44.06;101486.86;128461;1084;64169;-86
2021/08/13 02:28:00;;;;;;;5.27;4.20;;;;;;;29.95;44.30;101484.14;128509;1082;64133;-86
2021/08/13 02:30:29;;;;;;;7.13;4.07;;;;;;;29.96;44.49;101485.02;128901;1084;64186;-86
2021/08/13 02:33:18;;;;;;;;;;;;;;;29.93;43.87;101484.30;128538;1084;64134;-85
2021/08/13 02:35:45;;;;;;;5.13;4.33;;;;;;;29.92;44.21;101481.73;128378;1085;64125;-86
2021/08/13 02:38:20;;;;;;;5.53;4.20;;;;;;;29.93;44.10;101488.89;128357;1087;64139;-85
2021/08/13 02:40:55;;;;;;;5.17;4.30;;;;;;;29.93;44.25;101492.47;128024;1085;64242;-85
2021/08/13 02:43:24;;;;;;;5.40;3.90;;;;;;;29.92;44.08;101490.74;128377;1087;64211;-86
2021/08/13 02:45:51;;;;;;;5.43;3.80;;;;;;;29.93;44.09;101484.30;128370;1087;64357;-86
2021/08/13 02:48:17;;;;;;;5.33;4.07;;;;;;;29.93;44.29;101492.47;128363;1087;64119;-85
2021/08/13 02:50:43;;;;;;;5.80;4.30;;;;;;;29.92;43.91;101488.02;128365;1085;64214;-85
2021/08/13 02:53:21;;;;;;;6.00;4.03;;;;;;;29.93;43.76;101484.30;128352;1087;64203;-85
2021/08/13 02:56:09;;;;;;;5.07;4.07;;;;;;;29.93;44.06;101484.30;128027;1087;64107;-86
2021/08/13 02:58:52;;;;;;;6.07;4.20;;;;;;;29.93;44.13;101491.62;127949;1089;64137;-85
2021/08/13 03:01:23;;;;;;;5.43;3.90;;;;;;;29.92;44.21;101496.19;127933;1087;64403;-85
2021/08/13 03:03:50;;;;;;;5.47;4.37;;;;;;;29.93;44.26;101499.78;127928;1090;64140;-86
2021/08/13 03:06:18;;;;;;;4.90;3.90;;;;;;;29.93;43.87;101494.34;127916;1087;64256;-86
2021/08/13 03:08:45;;;;;;;5.10;4.00;;;;;;;29.93;44.30;101497.06;127910;1087;64166;-86
2021/08/13 03:11:11;;;;;;;6.40;4.30;;;;;;;29.92;43.90;101488.02;127918;1088;64143;-86
2021/08/13 03:13:37;;;;;;;5.20;4.17;;;;;;;29.93;43.80;101495.19;128179;1087;64099;-85
2021/08/13 03:16:12;;;;;;;5.10;4.13;;;;;;;29.93;44.27;101488.89;128347;1087;64108;-86
2021/08/13 03:18:39;;;;;;;5.20;4.33;;;;;;;29.92;44.01;101490.74;128368;1087;64462;-86
2021/08/13 03:21:09;;;;;;;4.87;4.37;;;;;;;29.94;44.07;101496.06;128314;1087;64135;-82
2021/08/13 03:23:42;;;;;;;4.97;4.13;;;;;;;29.92;44.36;101501.63;128371;1087;64213;-85
2021/08/13 03:26:08;;;;;;;5.00;4.17;;;;;;;29.91;44.33;101502.66;128382;1087;64163;-86
2021/08/13 03:28:35;;;;;;;4.90;4.10;;;;;;;29.92;44.30;101504.35;128393;1087;64102;-85
2021/08/13 03:31:02;;;;;;;6.93;4.47;;;;;;;29.92;43.87;101507.08;128009;1087;64373;-85
2021/08/13 03:33:29;;;;;;;5.23;3.90;;;;;;;29.93;43.88;101507.95;128379;1086;64304;-85
2021/08/13 03:35:59;;;;;;;5.63;4.40;;;;;;;29.92;44.46;101507.08;128472;1084;64143;-86
2021/08/13 03:38:25;;;;;;;5.10;4.07;;;;;;;29.91;44.36;101508.11;128498;1084;64241;-86
2021/08/13 03:40:51;;;;;;;4.83;3.87;;;;;;;29.92;44.28;101519.84;128515;1084;64584;-85
2021/08/13 03:43:20;;;;;;;4.90;3.90;;;;;;;29.92;43.93;101525.28;128521;1084;64157;-86
2021/08/13 03:45:46;;;;;;;;;;;;;;;29.91;43.86;101529.88;128536;1084;63964;-85
2021/08/13 03:48:13;;;;;;;4.50;4.00;;;;;;;29.91;44.17;101529.88;128891;1084;64157;-86
2021/08/13 03:50:39;;;;;;;5.00;3.80;;;;;;;29.92;44.28;101525.28;128490;1083;64237;-86
2021/08/13 03:53:06;;;;;;;5.33;4.30;;;;;;;29.91;44.40;101524.44;128520;1084;64141;-86
2021/08/13 03:55:32;;;;;;;5.50;4.10;;;;;;;29.90;44.26;101525.44;128473;1084;64585;-86
2021/08/13 03:57:58;;;;;;;5.43;4.03;;;;;;;29.91;44.32;101529.88;128482;1084;64134;-85
2021/08/13 04:00:24;;;;;;;5.20;4.10;;;;;;;29.91;44.16;101529.00;128489;1083;64131;-86
2021/08/13 04:02:51;;;;;;;5.60;4.10;;;;;;;29.91;44.32;101532.60;128492;1084;64132;-86
2021/08/13 04:05:17;;;;;;;5.27;4.37;;;;;;;29.91;44.00;101535.32;128466;1084;64227;-86
2021/08/13 04:07:44;;;;;;;4.90;3.90;;;;;;;29.92;43.98;101547.05;128459;1084;64160;-85
2021/08/13 04:10:10;;;;;;;5.23;3.90;;;;;;;29.92;43.90;101541.61;128530;1082;64667;-86
2021/08/13 04:12:42;;;;;;;5.10;4.10;;;;;;;29.92;44.22;101550.63;128511;1084;64204;-86
2021/08/13 04:15:08;;;;;;;4.87;3.90;;;;;;;29.91;43.85;101540.77;128499;1084;64102;-86
2021/08/13 04:17:35;;;;;;;5.03;3.80;;;;;;;29.91;44.37;101548.05;128490;1084;64128;-85
2021/08/13 04:20:24;;;;;;;4.50;3.90;;;;;;;29.92;44.40;101537.02;128477;1084;64282;-85
2021/08/13 04:22:50;;;;;;;4.60;3.97;;;;;;;29.92;44.37;101537.02;128388;1087;64214;-86
2021/08/13 04:25:17;;;;;;;5.77;3.80;;;;;;;29.92;44.35;101537.02;128042;1087;64312;-86
2021/08/13 04:27:46;;;;;;;6.03;3.90;;;;;;;29.93;43.88;101546.05;128352;1087;64156;-85
2021/08/13 04:30:13;;;;;;;5.27;4.20;;;;;;;29.92;43.88;101558.78;128010;1087;64624;-85
2021/08/13 04:32:40;;;;;;;4.93;3.90;;;;;;;29.93;44.01;101555.06;128017;1087;63939;-86
2021/08/13 04:35:07;;;;;;;5.07;3.97;;;;;;;29.93;44.16;101556.94;128351;1087;64110;-85
2021/08/13 04:37:33;;;;;;;5.27;4.00;;;;;;;29.93;44.00;101554.22;128365;1086;64135;-85
2021/08/13 04:39:59;;;;;;;5.20;4.07;;;;;;;29.94;43.91;101558.66;128398;1086;64412;-85
2021/08/13 04:42:25;;;;;;;5.90;4.30;;;;;;;29.93;44.27;101555.06;128410;1087;64134;-85
2021/08/13 04:44:53;;;;;;;4.83;3.70;;;;;;;29.95;43.90;101559.51;128391;1087;64279;-85
2021/08/13 04:47:19;;;;;;;5.97;4.10;;;;;;;29.94;43.87;101566.83;128351;1087;64266;-85
2021/08/13 04:49:45;;;;;;;6.40;4.60;;;;;;;29.93;44.20;101560.51;128464;1087;64271;-85
2021/08/13 04:52:11;;;;;;;14.27;4.80;;;;;;;29.91;43.90;101573.43;128505;1087;64278;-85
2021/08/13 04:54:37;;;;;;;21.13;5.13;;;;;;;29.91;43.37;101580.72;128598;1087;62908;-85
2021/08/13 04:57:04;;;;;;;16.50;5.20;;;;;;;29.90;43.49;101582.59;128486;1086;64099;-85
2021/08/13 04:59:30;;;;;;;20.47;5.20;;;;;;;29.90;42.92;101587.19;128091;1084;64578;-85
2021/08/13 05:01:56;;;;;;;10.03;4.37;;;;;;;29.90;43.10;101595.36;128912;1084;64124;-87
2021/08/13 05:04:22;;;;;;;13.43;4.53;;;;;;;29.88;43.07;101590.04;128494;1084;64115;-85
2021/08/13 05:06:48;;;;;;;9.33;4.80;;;;;;;29.88;42.95;101600.08;128487;1084;64140;-86
2021/08/13 05:09:15;;;;;;;8.20;4.60;;;;;;;29.87;42.79;101599.23;128348;1084;64240;-85
2021/08/13 05:11:41;;;;;;;6.85;4.55;;;;;;;29.88;42.82;101600.08;128394;1084;64181;-85
2021/08/13 05:14:07;;;;;;;8.80;4.70;;;;;;;29.87;42.60;101612.84;128443;1082;64192;-85
2021/08/13 05:16:33;;;;;;;7.13;4.57;;;;;;;29.86;42.00;101600.23;128470;1082;64099;-85
2021/08/13 05:19:00;;;;;;;7.23;4.57;;;;;;;29.85;42.34;101605.80;128406;1084;64172;-84
2021/08/13 05:21:27;;;;;;;8.03;4.40;;;;;;;29.85;41.72;101603.08;128468;1084;64093;-84
2021/08/13 05:23:56;;;;;;;8.77;4.57;;;;;;;29.84;41.41;101612.23;128491;1082;64187;-85
2021/08/13 05:26:22;;;;;;;6.70;4.60;;;;;;;29.82;41.43;101612.39;128496;1084;64655;-84
2021/08/13 05:28:51;;;;;;;7.53;4.23;;;;;;;29.81;40.83;101601.66;128439;1083;64150;-84
2021/08/13 05:31:17;;;;;;;9.30;4.28;;;;;;;29.75;40.82;101608.53;128427;1084;64163;-85
2021/08/13 05:33:45;;;;;;;8.53;4.47;;;;;;;29.72;40.63;101627.88;128489;1083;64202;-85
2021/08/13 05:36:15;;;;;;;6.10;4.27;;;;;;;29.71;40.48;101620.72;128896;1084;64140;-86
2021/08/13 05:38:41;;;;;;;9.17;5.20;;;;;;;29.70;39.76;101624.47;128773;1084;64102;-86
2021/08/13 05:41:07;;;;;;;7.90;4.57;;;;;;;29.68;39.88;101626.46;128427;1084;64201;-83
2021/08/13 05:43:33;;;;;;;10.53;4.50;;;;;;;29.65;39.27;101619.45;128459;1084;64288;-86
2021/08/13 05:46:03;;;;;;;8.07;4.33;;;;;;;29.61;39.02;101625.34;128487;1084;64125;-85
2021/08/13 05:48:29;;;;;;;8.20;4.50;;;;;;;29.62;39.09;101621.59;128431;1083;64203;-87
2021/08/13 05:50:56;;;;;;;8.73;4.53;;;;;;;29.63;39.09;101623.32;128885;1082;64275;-85
2021/08/13 05:53:22;;;;;;;8.23;3.90;;;;;;;29.64;39.37;101625.05;128502;1084;64089;-85
2021/08/13 05:55:48;;;;;;;7.40;4.53;;;;;;;29.65;39.17;101627.61;128463;1084;64102;-86
2021/08/13 05:58:14;;;;;;;12.43;5.00;;;;;;;29.66;39.14;101625.73;128344;1083;64156;-83
2021/08/13 06:00:42;;;;;;;13.13;5.27;;;;;;;29.64;39.04;101625.05;128455;1084;64205;-85
2021/08/13 06:03:11;;;;;;;15.00;5.33;;;;;;;29.63;38.89;101629.64;128477;1082;64131;-84
2021/08/13 06:05:38;;;;;;;10.33;5.00;;;;;;;29.64;38.69;101625.05;128499;1084;64125;-85
2021/08/13 06:08:04;;;;;;;7.87;4.43;;;;;;;29.65;38.58;101629.48;128474;1084;64125;-86
2021/08/13 06:10:32;;;;;;;12.33;4.97;;;;;;;29.65;38.42;101622.17;128515;1083;64125;-84
2021/08/13 06:12:58;;;;;;;11.63;4.53;;;;;;;29.67;38.23;101636.50;128449;1084;64546;-85
2021/08/13 06:15:26;;;;;;;7.73;4.40;;;;;;;29.70;38.70;101638.92;128456;1084;64125;-85
2021/08/13 06:17:56;;;;;;;7.53;4.63;;;;;;;29.70;38.55;101641.64;128497;1084;64125;-86
2021/08/13 06:20:24;;;;;;;9.77;4.17;;;;;;;29.71;38.63;101645.20;128455;1084;64147;-85
2021/08/13 06:22:52;;;;;;;7.10;3.90;;;;;;;29.71;38.12;101647.92;128507;1082;64180;-85
2021/08/13 06:25:18;;;;;;;9.93;4.65;;;;;;;29.70;38.15;101646.23;128488;1084;64067;-85
2021/08/13 06:27:45;;;;;;;9.33;4.10;;;;;;;29.71;38.24;101642.48;128457;1082;64122;-85
2021/08/13 06:30:18;;;;;;;7.23;4.20;;;;;;;29.70;37.73;101647.08;128452;1084;64131;-85
2021/08/13 06:32:45;;;;;;;9.53;4.37;;;;;;;29.66;37.43;101658.39;128509;1084;64208;-86
2021/08/13 06:35:11;;;;;;;10.30;4.43;;;;;;;29.58;36.88;101651.83;128425;1084;64021;-86
2021/08/13 06:37:55;;;;;;;10.37;4.20;;;;;;;29.58;37.16;101648.27;128523;1083;64137;-86
2021/08/13 06:40:22;;;;;;;8.30;4.50;;;;;;;29.58;37.11;101646.39;128842;1084;64292;-84
2021/08/13 06:42:49;;;;;;;8.77;3.93;;;;;;;29.61;36.58;101645.23;128517;1083;61956;-85
2021/08/13 06:45:18;;;;;;;11.53;4.77;;;;;;;29.62;36.76;101656.97;128464;1083;64095;-85
2021/08/13 06:47:44;;;;;;;9.20;4.20;;;;;;;29.52;36.26;101648.83;128501;1084;64125;-85
2021/08/13 06:50:13;;;;;;;;;;;;;;;29.42;35.50;101648.85;128534;1084;64160;-85
2021/08/13 06:52:39;;;;;;;8.77;4.00;;;;;;;29.35;35.57;101645.86;128912;1084;64108;-84
2021/08/13 06:55:06;;;;;;;10.07;4.07;;;;;;;29.32;35.85;101643.41;128489;1084;64240;-85
2021/08/13 06:57:35;;;;;;;8.23;4.30;;;;;;;29.36;35.81;101655.73;128467;1084;64134;-86
2021/08/13 07:00:05;;;;;;;8.70;3.87;;;;;;;29.40;35.77;101650.84;128460;1084;64157;-85
2021/08/13 07:02:31;;;;;;;6.70;3.90;;;;;;;29.38;35.30;101639.27;128480;1082;64131;-85
2021/08/13 07:04:59;;;;;;;9.63;4.00;;;;;;;29.41;35.74;101647.13;128414;1084;64106;-85
2021/08/13 07:07:30;;;;;;;10.33;3.90;;;;;;;29.40;35.05;101640.84;128903;1083;64144;-85
2021/08/13 07:09:56;;;;;;;8.53;3.67;;;;;;;29.38;34.70;101644.70;128862;1084;64149;-85
2021/08/13 07:12:26;;;;;;;7.33;3.40;;;;;;;29.35;34.34;101640.41;128497;1084;64131;-85
2021/08/13 07:14:52;;;;;;;7.70;3.93;;;;;;;29.31;34.50;101641.71;128461;1084;64132;-86
2021/08/13 07:17:19;;;;;;;9.27;3.90;;;;;;;29.35;34.36;101642.26;128491;1084;64031;-85
2021/08/13 07:19:45;;;;;;;7.27;3.87;;;;;;;29.40;34.88;101648.13;128466;1084;64146;-85
2021/08/13 07:22:20;;;;;;;26.53;8.00;;;;;;;29.42;34.36;101646.14;128451;1084;64224;-84
2021/08/13 07:24:48;;;;;;;9.67;4.63;;;;;;;29.37;34.23;101646.55;128810;1084;64086;-85
2021/08/13 07:27:14;;;;;;;10.65;4.50;;;;;;;29.34;34.41;101651.44;128704;1082;64208;-84
2021/08/13 07:29:42;;;;;;;9.00;4.57;;;;;;;29.33;33.87;101657.88;128409;1082;64115;-86
2021/08/13 07:32:08;;;;;;;11.07;4.67;;;;;;;29.31;33.95;101654.43;128514;1084;64090;-85
2021/08/13 07:34:34;;;;;;;9.37;4.47;;;;;;;29.30;33.98;101645.42;128490;1084;64120;-85
2021/08/13 07:37:00;;;;;;;9.43;4.20;;;;;;;29.28;33.65;101649.29;128355;1084;64184;-84
2021/08/13 07:39:28;;;;;;;10.73;4.43;;;;;;;29.29;33.58;101654.58;128365;1084;64128;-85
2021/08/13 07:41:54;;;;;;;14.03;5.10;;;;;;;29.33;33.90;101658.72;128453;1084;64326;-86
2021/08/13 07:44:20;;;;;;;9.07;4.07;;;;;;;29.34;33.39;101665.04;128457;1084;64124;-85
2021/08/13 07:46:46;;;;;;;9.97;4.23;;;;;;;29.30;33.48;101661.74;128365;1084;64136;-84
2021/08/13 07:49:12;;;;;;;7.83;4.20;;;;;;;29.28;33.26;101661.02;128438;1084;64102;-85
2021/08/13 07:51:43;;;;;;;6.53;4.00;;;;;;;29.29;33.55;101667.33;128376;1083;64141;-85
2021/08/13 07:54:09;;;;;;;14.17;5.37;;;;;;;29.35;33.35;101672.17;128483;1084;64146;-85
2021/08/13 07:56:35;;;;;;;13.27;5.53;;;;;;;29.38;33.58;101658.31;128329;1084;64198;-85
2021/08/13 07:59:01;;;;;;;10.37;4.97;;;;;;;29.37;33.24;101667.46;128357;1084;64224;-85
2021/08/13 08:01:28;;;;;;;15.25;6.10;;;;;;;29.36;33.17;101658.45;128321;1082;64190;-81
2021/08/13 08:03:54;;;;;;;11.70;5.03;;;;;;;29.36;32.96;101665.73;128303;1084;64172;-84
2021/08/13 08:06:20;;;;;;;11.43;5.30;;;;;;;29.37;32.95;101662.02;128345;1084;64198;-84
2021/08/13 08:08:48;;;;;;;10.23;4.50;;;;;;;29.41;33.22;101667.02;128377;1083;64127;-85
2021/08/13 08:11:16;;;;;;;9.17;4.13;;;;;;;29.43;32.96;101666.90;128490;1084;64093;-85
2021/08/13 08:13:44;;;;;;;9.60;4.07;;;;;;;29.38;32.31;101667.31;128484;1084;64118;-85
2021/08/13 08:16:12;;;;;;;11.13;4.20;;;;;;;29.37;32.70;101664.74;128474;1084;64096;-86
2021/08/13 08:18:39;;;;;;;;;;;;;;;29.37;32.53;101665.59;128488;1082;65116;-85
2021/08/13 08:21:05;;;;;;;7.20;4.03;;;;;;;29.36;32.40;101682.94;128396;1084;61754;-86
2021/08/13 08:23:33;;;;;;;9.30;3.80;;;;;;;29.37;32.17;101683.78;128915;1084;64137;-86
2021/08/13 08:25:59;;;;;;;9.53;4.03;;;;;;;29.37;32.13;101673.75;128431;1083;64133;-85
2021/08/13 08:28:25;;;;;;;10.20;4.20;;;;;;;29.42;32.62;101674.18;128482;1082;64154;-86
2021/08/13 08:30:54;;;;;;;7.93;4.13;;;;;;;29.47;32.56;101668.32;128470;1084;64379;-86
2021/08/13 08:33:21;;;;;;;6.73;4.20;;;;;;;29.51;32.79;101668.88;128500;1082;63929;-86
2021/08/13 08:35:50;;;;;;;12.00;4.27;;;;;;;29.55;33.00;101681.17;128471;1084;64648;-85
2021/08/13 08:38:16;;;;;;;7.17;4.00;;;;;;;29.57;33.33;101680.03;128471;1084;64096;-85
2021/08/13 08:40:42;;;;;;;8.07;3.90;;;;;;;29.63;33.26;101680.45;128500;1084;65357;-84
2021/08/13 08:43:09;;;;;;;6.40;3.80;;;;;;;29.64;33.75;101672.14;128501;1084;64134;-84
2021/08/13 08:45:37;;;;;;;7.73;3.90;;;;;;;29.68;33.44;101687.17;128454;1084;64128;-84
2021/08/13 08:48:05;;;;;;;6.28;4.00;;;;;;;29.71;33.93;101683.30;128445;1084;64105;-85
2021/08/13 08:50:31;;;;;;;9.90;4.37;;;;;;;29.74;33.85;101683.88;128634;1084;62963;-85
2021/08/13 08:52:59;;;;;;;8.67;4.00;;;;;;;29.75;33.38;101677.44;129013;1084;64131;-84
2021/08/13 08:55:26;;;;;;;7.93;4.23;;;;;;;29.77;33.52;101682.73;128623;1083;64147;-84
2021/08/13 08:57:54;;;;;;;7.37;4.23;;;;;;;29.79;33.85;101685.30;128668;1084;64313;-84
2021/08/13 09:00:20;;;;;;;;;;;;;;;29.80;33.93;101687.87;128757;1084;62956;-84
2021/08/13 09:02:46;;;;;;;11.23;4.40;;;;;;;29.80;34.27;101687.87;129047;1084;62846;-84
2021/08/13 09:05:13;;;;;;;6.73;4.20;;;;;;;29.82;33.49;101680.43;128453;1084;64131;-86
2021/08/13 09:07:39;;;;;;;7.97;4.20;;;;;;;29.83;33.83;101670.39;128484;1084;64093;-85
2021/08/13 09:10:16;;;;;;;7.13;4.27;;;;;;;29.84;33.79;101681.13;128433;1084;64176;-85
2021/08/13 09:12:42;;;;;;;8.23;4.20;;;;;;;29.84;33.64;101678.40;128893;1084;64167;-85
2021/08/13 09:15:32;;;;;;;7.23;4.40;;;;;;;29.84;33.87;101672.95;128508;1084;64198;-85
2021/08/13 09:18:21;;;;;;;6.10;3.50;;;;;;;29.84;33.78;101675.68;128400;1084;64109;-84
2021/08/13 09:20:54;;;;;;;6.90;4.17;;;;;;;29.85;33.96;101665.67;128879;1084;64213;-85
2021/08/13 09:23:43;;;;;;;6.67;3.63;;;;;;;29.86;33.86;101675.56;128888;1084;64275;-85
2021/08/13 09:26:18;;;;;;;9.03;3.80;;;;;;;29.86;33.59;101675.56;128824;1083;64112;-85
2021/08/13 09:29:07;;;;;;;7.07;3.87;;;;;;;29.86;33.55;101679.16;128810;1084;64202;-85
2021/08/13 09:31:35;;;;;;;6.37;4.00;;;;;;;29.85;33.72;101663.80;128257;1086;64179;-85
2021/08/13 09:34:09;;;;;;;7.30;4.23;;;;;;;29.86;33.54;101668.27;128270;1087;64568;-84
2021/08/13 09:36:37;;;;;;;7.87;4.23;;;;;;;29.88;33.91;101670.84;128155;1085;64371;-84
2021/08/13 09:39:10;;;;;;;13.13;4.10;;;;;;;29.89;33.79;101678.01;127970;1085;64256;-84
2021/08/13 09:41:51;;;;;;;8.27;3.70;;;;;;;29.89;33.41;101658.95;128212;1087;64138;-84
2021/08/13 09:44:42;;;;;;;5.57;3.77;;;;;;;29.90;33.48;101671.56;128267;1086;64156;-85
2021/08/13 09:47:11;;;;;;;6.77;3.90;;;;;;;29.90;33.42;101664.25;128227;1087;64281;-85
2021/08/13 09:49:41;;;;;;;;;;;;;;;29.90;33.47;101669.69;128223;1087;64325;-85
2021/08/13 09:52:11;;;;;;;7.00;3.70;;;;;;;29.89;33.58;101667.97;128304;1087;64137;-85
2021/08/13 09:54:37;;;;;;;6.63;3.80;;;;;;;29.90;33.53;101668.84;128357;1087;64243;-85
2021/08/13 09:57:58;;;;;;;7.47;4.00;;;;;;;29.90;33.27;101675.13;128023;1087;64159;-85
2021/08/13 10:00:25;;;;;;;6.37;3.10;;;;;;;29.89;33.78;101673.41;127842;1090;64211;-86
2021/08/13 10:03:11;;;;;;;7.20;4.10;;;;;;;29.89;33.24;101670.69;127750;1089;64222;-85
2021/08/13 10:05:38;;;;;;;7.10;3.80;;;;;;;29.90;33.31;101677.86;127866;1089;64159;-85
2021/08/13 10:08:05;;;;;;;7.20;3.73;;;;;;;29.90;33.17;101668.84;127760;1090;64266;-85
2021/08/13 10:10:41;;;;;;;7.05;4.05;;;;;;;29.89;33.63;101667.13;127983;1087;64134;-85
2021/08/13 10:13:09;;;;;;;5.83;3.63;;;;;;;29.90;33.43;101664.25;128003;1087;64130;-85
2021/08/13 10:15:47;;;;;;;6.10;3.73;;;;;;;29.90;33.31;101666.13;128008;1087;64157;-84
2021/08/13 10:18:14;;;;;;;8.93;4.13;;;;;;;29.90;33.44;101660.68;128236;1086;64280;-84
2021/08/13 10:20:47;;;;;;;5.87;3.77;;;;;;;29.90;33.08;101656.08;128327;1087;64214;-84
2021/08/13 10:23:13;;;;;;;5.70;3.73;;;;;;;29.90;33.39;101647.92;128275;1085;64121;-84
2021/08/13 10:25:41;;;;;;;6.37;3.57;;;;;;;29.91;33.21;101651.48;127905;1086;64138;-84
2021/08/13 10:28:07;;;;;;;7.27;4.00;;;;;;;29.92;33.36;101655.93;128132;1087;64129;-86
2021/08/13 10:30:33;;;;;;;6.67;3.80;;;;;;;29.92;32.84;101653.20;128346;1086;64252;-87
2021/08/13 10:33:02;;;;;;;5.83;3.57;;;;;;;29.91;33.22;101644.20;128001;1085;64143;-86
2021/08/13 10:35:33;;;;;;;7.00;3.77;;;;;;;29.91;33.03;101652.36;128003;1086;64138;-86
2021/08/13 10:38:01;;;;;;;8.40;3.90;;;;;;;29.92;32.98;101643.16;128494;1083;64147;-86
2021/08/13 10:40:50;;;;;;;7.33;4.10;;;;;;;29.92;33.28;101645.89;128500;1083;64361;-85
2021/08/13 10:43:17;;;;;;;6.37;3.97;;;;;;;29.93;32.75;101638.60;128358;1087;64236;-85
2021/08/13 10:45:43;;;;;;;6.93;3.70;;;;;;;29.91;32.78;101632.44;128278;1087;64142;-86
2021/08/13 10:48:36;;;;;;;7.13;3.97;;;;;;;29.92;32.74;101635.00;127976;1085;64163;-85
2021/08/13 10:51:02;;;;;;;6.93;3.80;;;;;;;29.92;32.84;101631.44;127817;1090;64301;-85
2021/08/13 10:53:35;;;;;;;6.30;3.50;;;;;;;29.92;32.93;101626.83;127649;1090;64341;-84
2021/08/13 10:56:04;;;;;;;5.37;3.30;;;;;;;29.92;33.11;101621.39;127614;1090;64502;-84
2021/08/13 10:58:56;;;;;;;6.93;4.00;;;;;;;29.92;33.06;101629.55;127831;1090;64166;-85
2021/08/13 11:01:25;;;;;;;6.60;3.60;;;;;;;29.92;33.22;101621.39;127633;1088;64145;-85
2021/08/13 11:03:54;;;;;;;7.10;3.50;;;;;;;29.94;33.05;101621.27;127631;1090;64164;-85
2021/08/13 11:06:39;;;;;;;5.73;3.77;;;;;;;29.94;32.89;101621.27;127641;1090;64278;-87
2021/08/13 11:09:06;;;;;;;5.77;3.77;;;;;;;29.93;32.63;101619.55;127693;1089;64147;-85
2021/08/13 11:11:54;;;;;;;7.73;3.77;;;;;;;29.93;33.11;101620.39;127672;1090;65497;-85
2021/08/13 11:14:25;;;;;;;7.00;3.73;;;;;;;29.94;32.89;101618.55;127644;1090;64160;-85
2021/08/13 11:16:53;;;;;;;6.47;3.60;;;;;;;29.95;32.63;101606.63;127738;1090;64166;-85
2021/08/13 11:19:19;;;;;;;;;;;;;;;29.93;33.09;101600.49;127512;1090;64157;-85
2021/08/13 11:21:49;;;;;;;7.15;3.55;;;;;;;29.93;32.89;101606.78;127667;1089;64114;-85
2021/08/13 11:24:19;;;;;;;6.77;3.60;;;;;;;29.95;32.81;101601.19;127893;1089;64253;-83
2021/08/13 11:26:50;;;;;;;5.37;3.50;;;;;;;29.95;32.81;101597.62;128005;1089;64237;-84
2021/08/13 11:29:35;;;;;;;7.60;4.07;;;;;;;29.95;33.02;101590.30;128084;1087;64240;-84